createdAt,value
2022-11-15T00:01:19.035Z,7.21
2022-11-15T00:03:48.910Z,7.24
2022-11-15T00:06:16.911Z,6.91
2022-11-15T00:08:45.347Z,6.96
2022-11-15T00:11:14.428Z,7.21
2022-11-15T00:13:43.244Z,7.08
2022-11-15T00:16:11.513Z,6.94
2022-11-15T00:18:40.175Z,7.07
2022-11-15T00:21:12.195Z,7.31
2022-11-15T00:23:40.641Z,6.83
2022-11-15T00:26:09.330Z,6.77
2022-11-15T00:28:37.882Z,6.69
2022-11-15T00:31:07.532Z,6.84
2022-11-15T00:33:36.125Z,6.61
2022-11-15T00:36:05.642Z,6.61
2022-11-15T00:38:35.646Z,6.48
2022-11-15T00:41:09.049Z,6.17
2022-11-15T00:43:38.460Z,6.04
2022-11-15T00:46:07.050Z,5.88
2022-11-15T00:48:35.369Z,5.73
2022-11-15T00:51:03.817Z,5.57
2022-11-15T00:53:32.616Z,5.42
2022-11-15T00:56:02.333Z,5.63
2022-11-15T00:58:30.764Z,5.25
2022-11-15T01:00:58.875Z,5.29
2022-11-15T01:03:27.369Z,5.30
2022-11-15T01:05:55.626Z,5.36
2022-11-15T01:08:24.030Z,5.42
2022-11-15T01:10:52.091Z,5.46
2022-11-15T01:13:21.810Z,5.55
2022-11-15T01:15:49.790Z,5.16
2022-11-15T01:18:18.099Z,5.10
2022-11-15T01:20:46.303Z,5.08
2022-11-15T01:23:14.669Z,5.14
2022-11-15T01:25:42.796Z,5.15
2022-11-15T01:28:11.206Z,5.15
2022-11-15T01:30:40.710Z,5.21
2022-11-15T01:33:09.111Z,4.87
2022-11-15T01:35:40.852Z,5.30
2022-11-15T01:38:09.539Z,5.10
2022-11-15T01:40:37.539Z,4.98
2022-11-15T01:43:21.355Z,5.47
2022-11-15T01:45:54.619Z,5.19
2022-11-15T01:48:23.278Z,4.86
2022-11-15T01:50:52.117Z,4.83
2022-11-15T01:53:22.273Z,4.86
2022-11-15T01:55:50.321Z,4.46
2022-11-15T01:58:18.974Z,4.66
2022-11-15T02:00:48.837Z,4.67
2022-11-15T02:03:18.831Z,5.00
2022-11-15T02:05:46.820Z,4.67
2022-11-15T02:08:21.203Z,4.65
2022-11-15T02:10:49.320Z,4.61
2022-11-15T02:13:18.660Z,4.90
2022-11-15T02:15:55.314Z,4.93
2022-11-15T02:18:30.283Z,4.86
2022-11-15T02:21:08.424Z,5.19
2022-11-15T02:24:18.280Z,5.36
2022-11-15T02:27:33.057Z,5.39
2022-11-15T02:30:21.161Z,5.25
2022-11-15T02:32:52.890Z,5.15
2022-11-15T02:35:28.457Z,5.21
2022-11-15T02:37:59.222Z,5.26
2022-11-15T02:40:36.390Z,5.32
2022-11-15T02:43:27.654Z,5.18
2022-11-15T02:45:59.155Z,5.57
2022-11-15T02:48:28.168Z,5.01
2022-11-15T02:50:56.677Z,4.75
2022-11-15T02:53:26.666Z,5.01
2022-11-15T02:55:56.207Z,5.03
2022-11-15T02:58:37.635Z,5.12
2022-11-15T03:01:14.565Z,5.17
2022-11-15T03:03:51.407Z,5.08
2022-11-15T03:06:27.751Z,5.02
2022-11-15T03:09:04.424Z,5.01
2022-11-15T03:11:35.076Z,4.84
2022-11-15T03:14:07.196Z,4.83
2022-11-15T03:16:39.728Z,4.86
2022-11-15T03:19:12.799Z,4.92
2022-11-15T03:21:42.322Z,4.91
2022-11-15T03:24:11.005Z,4.81
2022-11-15T03:26:41.561Z,5.07
2022-11-15T03:29:14.031Z,5.15
2022-11-15T03:31:51.191Z,5.11
2022-11-15T03:34:26.742Z,5.15
2022-11-15T03:36:55.292Z,4.57
2022-11-15T03:39:24.270Z,4.72
2022-11-15T03:41:59.458Z,4.81
2022-11-15T03:44:37.293Z,4.78
2022-11-15T03:47:11.187Z,4.82
2022-11-15T03:49:41.685Z,4.84
2022-11-15T03:52:12.321Z,4.86
2022-11-15T03:54:50.298Z,5.01
2022-11-15T03:57:18.847Z,4.49
2022-11-15T03:59:46.881Z,4.41
2022-11-15T04:02:17.628Z,4.47
2022-11-15T04:04:45.693Z,4.19
2022-11-15T04:07:14.571Z,4.40
2022-11-15T04:09:57.223Z,4.14
2022-11-15T04:12:31.841Z,4.19
2022-11-15T04:15:19.130Z,4.47
2022-11-15T04:17:50.422Z,4.65
2022-11-15T04:20:37.518Z,4.55
2022-11-15T04:23:25.217Z,4.75
2022-11-15T04:25:54.402Z,4.82
2022-11-15T04:28:23.005Z,4.66
2022-11-15T04:30:51.049Z,4.64
2022-11-15T04:33:21.128Z,4.75
2022-11-15T04:36:09.479Z,4.39
2022-11-15T04:38:38.643Z,4.49
2022-11-15T04:41:06.809Z,4.38
2022-11-15T04:43:35.444Z,4.33
2022-11-15T04:46:03.600Z,4.37
2022-11-15T04:48:33.490Z,4.82
2022-11-15T04:51:01.578Z,4.54
2022-11-15T04:53:30.416Z,4.66
2022-11-15T04:55:58.891Z,4.75
2022-11-15T04:58:27.217Z,4.69
2022-11-15T05:00:55.359Z,4.78
2022-11-15T05:03:41.393Z,4.70
2022-11-15T05:06:10.987Z,4.98
2022-11-15T05:08:39.409Z,4.63
2022-11-15T05:11:07.859Z,4.74
2022-11-15T05:13:36.254Z,4.62
2022-11-15T05:16:04.486Z,4.60
2022-11-15T05:18:32.906Z,4.57
2022-11-15T05:21:05.498Z,4.94
2022-11-15T05:23:35.646Z,4.88
2022-11-15T05:26:08.988Z,4.69
2022-11-15T05:28:38.210Z,4.74
2022-11-15T05:31:07.983Z,4.79
2022-11-15T05:33:36.902Z,4.77
2022-11-15T05:36:07.617Z,5.04
2022-11-15T05:38:37.704Z,5.04
2022-11-15T05:41:06.743Z,4.87
2022-11-15T05:43:37.668Z,4.90
2022-11-15T05:46:07.032Z,4.75
2022-11-15T05:48:36.613Z,4.64
2022-11-15T05:51:05.050Z,4.40
2022-11-15T05:53:34.007Z,4.42
2022-11-15T05:56:04.801Z,4.65
2022-11-15T05:58:33.295Z,4.27
2022-11-15T06:01:01.954Z,4.33
2022-11-15T06:03:30.717Z,4.19
2022-11-15T06:05:59.215Z,4.12
2022-11-15T06:08:27.581Z,4.13
2022-11-15T06:10:55.898Z,4.07
2022-11-15T06:13:25.700Z,4.37
2022-11-15T06:15:57.578Z,4.52
2022-11-15T06:18:26.035Z,4.17
2022-11-15T06:20:54.224Z,4.17
2022-11-15T06:23:22.594Z,4.27
2022-11-15T06:25:50.858Z,4.32
2022-11-15T06:28:19.155Z,4.42
2022-11-15T06:30:52.987Z,4.80
2022-11-15T06:33:21.803Z,4.59
2022-11-15T06:35:49.962Z,4.67
2022-11-15T06:38:18.429Z,4.69
2022-11-15T06:40:46.434Z,4.86
2022-11-15T06:43:15.725Z,4.95
2022-11-15T06:45:43.857Z,5.10
2022-11-15T06:48:13.649Z,5.48
2022-11-15T06:50:41.683Z,5.35
2022-11-15T06:53:10.157Z,5.56
2022-11-15T06:55:39.772Z,5.68
2022-11-15T06:58:08.156Z,5.68
2022-11-15T07:00:36.250Z,5.74
2022-11-15T07:03:05.097Z,5.95
2022-11-15T07:05:34.492Z,6.19
2022-11-15T07:08:03.013Z,6.04
2022-11-15T07:10:31.089Z,5.97
2022-11-15T07:12:59.469Z,6.03
2022-11-15T07:15:28.029Z,6.34
2022-11-15T07:17:56.568Z,6.35
2022-11-15T07:20:24.812Z,6.55
2022-11-15T07:23:01.972Z,7.33
2022-11-15T07:25:30.077Z,7.31
2022-11-15T07:27:58.907Z,7.90
2022-11-15T07:30:27.905Z,8.53
2022-11-15T07:32:56.468Z,8.97
2022-11-15T07:35:24.984Z,9.92
2022-11-15T07:37:58.800Z,11.49
2022-11-15T07:40:27.431Z,12.39
2022-11-15T07:43:01.689Z,14.51
2022-11-15T07:45:29.750Z,14.30
2022-11-15T07:47:58.385Z,13.82
2022-11-15T07:50:26.484Z,13.47
2022-11-15T07:53:00.468Z,14.29
2022-11-15T07:55:30.726Z,14.84
2022-11-15T07:58:03.409Z,16.45
2022-11-15T08:00:31.922Z,17.40
2022-11-15T08:03:04.653Z,18.67
2022-11-15T08:05:33.188Z,19.01
2022-11-15T08:08:03.058Z,19.18
2022-11-15T08:10:34.225Z,19.19
2022-11-15T08:13:07.699Z,19.60
2022-11-15T08:15:37.028Z,20.09
2022-11-15T08:18:07.167Z,20.63
2022-11-15T08:20:35.252Z,20.97
2022-11-15T08:23:06.448Z,21.47
2022-11-15T08:25:35.916Z,21.55
2022-11-15T08:28:05.676Z,21.76
2022-11-15T08:30:37.366Z,22.24
2022-11-15T08:33:06.087Z,22.70
2022-11-15T08:35:34.214Z,22.79
2022-11-15T08:38:04.135Z,22.86
2022-11-15T08:40:32.250Z,23.15
2022-11-15T08:43:03.659Z,23.64
2022-11-15T08:45:32.071Z,23.67
2022-11-15T08:48:03.120Z,24.81
2022-11-15T08:50:31.167Z,24.97
2022-11-15T08:52:59.792Z,25.38
2022-11-15T08:55:29.484Z,25.85
2022-11-15T08:57:59.314Z,25.61
2022-11-15T09:00:27.587Z,25.18
2022-11-15T09:02:55.984Z,25.09
2022-11-15T09:05:24.125Z,25.81
2022-11-15T09:07:55.152Z,25.66
2022-11-15T09:10:23.303Z,25.62
2022-11-15T09:12:53.193Z,26.70
2022-11-15T09:15:21.882Z,27.36
2022-11-15T09:17:50.307Z,27.98
2022-11-15T09:20:18.710Z,28.68
2022-11-15T09:22:47.213Z,29.46
2022-11-15T09:25:15.758Z,30.14
2022-11-15T09:27:44.095Z,30.63
2022-11-15T09:30:14.766Z,31.59
2022-11-15T09:32:43.142Z,31.79
2022-11-15T09:35:11.380Z,32.00
2022-11-15T09:37:39.871Z,32.10
2022-11-15T09:40:10.568Z,32.49
2022-11-15T09:42:51.145Z,33.01
2022-11-15T09:45:23.172Z,33.37
2022-11-15T09:48:01.843Z,34.03
2022-11-15T09:50:36.665Z,34.13
2022-11-15T09:53:05.298Z,33.77
2022-11-15T09:55:39.916Z,33.99
2022-11-15T09:58:16.182Z,34.05
2022-11-15T10:00:49.708Z,34.07
2022-11-15T10:03:20.431Z,34.47
2022-11-15T10:05:50.822Z,34.69
2022-11-15T10:08:23.544Z,35.63
2022-11-15T10:11:09.616Z,34.78
2022-11-15T10:13:42.712Z,35.03
2022-11-15T10:16:26.960Z,34.31
2022-11-15T10:19:02.333Z,34.19
2022-11-15T10:21:36.628Z,34.49
2022-11-15T10:24:12.840Z,34.86
2022-11-15T10:26:41.389Z,34.75
2022-11-15T10:29:09.685Z,34.55
2022-11-15T10:31:41.755Z,35.03
2022-11-15T10:34:15.152Z,35.22
2022-11-15T10:36:50.288Z,35.76
2022-11-15T10:39:18.907Z,35.71
2022-11-15T10:41:47.162Z,35.90
2022-11-15T10:44:29.300Z,36.38
2022-11-15T10:47:24.056Z,36.27
2022-11-15T10:50:00.575Z,36.03
2022-11-15T10:52:29.529Z,36.15
2022-11-15T10:54:59.862Z,35.91
2022-11-15T10:57:29.801Z,34.43
2022-11-15T11:00:00.749Z,32.62
2022-11-15T11:02:31.564Z,31.62
2022-11-15T11:05:00.778Z,29.92
2022-11-15T11:07:30.520Z,28.84
2022-11-15T11:10:00.574Z,27.88
2022-11-15T11:12:33.505Z,27.72
2022-11-15T11:15:03.490Z,27.54
2022-11-15T11:17:43.132Z,26.90
2022-11-15T11:20:19.597Z,25.59
2022-11-15T11:23:00.527Z,24.73
2022-11-15T11:25:35.390Z,23.82
2022-11-15T11:28:25.780Z,23.10
2022-11-15T11:31:02.904Z,22.29
2022-11-15T11:33:34.995Z,21.82
2022-11-15T11:36:12.183Z,21.42
2022-11-15T11:38:49.525Z,21.27
2022-11-15T11:41:26.543Z,21.17
2022-11-15T11:44:01.932Z,21.01
2022-11-15T11:46:50.625Z,21.25
2022-11-15T11:49:24.119Z,21.20
2022-11-15T11:51:57.628Z,21.20
2022-11-15T11:54:28.984Z,21.04
2022-11-15T11:56:59.486Z,20.80
2022-11-15T11:59:34.371Z,20.87
2022-11-15T12:02:05.044Z,20.49
2022-11-15T12:04:39.948Z,20.30
2022-11-15T12:07:13.465Z,20.00
2022-11-15T12:09:43.977Z,19.70
2022-11-15T12:12:17.709Z,19.63
2022-11-15T12:14:49.049Z,19.38
2022-11-15T12:17:20.173Z,19.08
2022-11-15T12:19:49.661Z,19.00
2022-11-15T12:22:22.099Z,18.90
2022-11-15T12:24:54.588Z,18.70
2022-11-15T12:27:31.555Z,18.54
2022-11-15T12:30:02.735Z,18.27
2022-11-15T12:32:33.902Z,18.02
2022-11-15T12:35:04.818Z,17.89
2022-11-15T12:37:46.851Z,18.30
2022-11-15T12:40:35.421Z,18.22
2022-11-15T12:43:42.804Z,18.12
2022-11-15T12:46:15.811Z,17.81
2022-11-15T12:48:50.311Z,17.63
2022-11-15T12:51:22.501Z,17.67
2022-11-15T12:53:51.296Z,17.34
2022-11-15T12:56:26.663Z,17.69
2022-11-15T12:58:57.874Z,17.41
2022-11-15T13:02:00.404Z,17.61
2022-11-15T13:04:31.141Z,17.19
2022-11-15T13:07:02.358Z,17.01
2022-11-15T13:09:53.519Z,17.26
2022-11-15T13:12:57.016Z,17.25
2022-11-15T13:15:43.011Z,17.07
2022-11-15T13:18:35.345Z,17.04
2022-11-15T13:21:27.261Z,16.60
2022-11-15T13:23:57.650Z,16.67
2022-11-15T13:26:26.615Z,16.45
2022-11-15T13:28:56.480Z,16.19
2022-11-15T13:31:30.998Z,16.45
2022-11-15T13:34:02.516Z,16.37
2022-11-15T13:36:34.293Z,16.32
2022-11-15T13:39:05.651Z,16.27
2022-11-15T13:41:35.479Z,16.14
2022-11-15T13:44:04.908Z,16.01
2022-11-15T13:46:34.767Z,15.87
2022-11-15T13:49:04.347Z,15.83
2022-11-15T13:51:37.904Z,16.02
2022-11-15T13:54:14.974Z,16.01
2022-11-15T13:56:45.434Z,15.76
2022-11-15T13:59:17.892Z,15.86
2022-11-15T14:01:46.501Z,15.47
2022-11-15T14:04:16.255Z,15.56
2022-11-15T14:06:49.572Z,15.67
2022-11-15T14:09:36.625Z,15.88
2022-11-15T14:12:24.739Z,15.91
2022-11-15T14:14:53.191Z,15.23
2022-11-15T14:17:24.754Z,15.42
2022-11-15T14:19:53.401Z,16.03
2022-11-15T14:22:23.678Z,15.28
2022-11-15T14:25:17.333Z,15.45
2022-11-15T14:27:47.404Z,15.05
2022-11-15T14:30:16.973Z,14.96
2022-11-15T14:32:47.625Z,15.01
2022-11-15T14:35:17.573Z,14.88
2022-11-15T14:37:46.030Z,14.52
2022-11-15T14:40:18.255Z,14.83
2022-11-15T14:42:47.849Z,14.77
2022-11-15T14:45:18.127Z,14.92
2022-11-15T14:47:46.765Z,14.55
2022-11-15T14:50:15.996Z,14.68
2022-11-15T14:52:44.788Z,14.46
2022-11-15T14:55:19.664Z,14.72
2022-11-15T14:57:48.180Z,14.32
2022-11-15T15:00:17.123Z,14.31
2022-11-15T15:02:47.244Z,14.34
2022-11-15T15:05:17.329Z,14.44
2022-11-15T15:07:45.850Z,14.17
2022-11-15T15:10:38.947Z,14.30
2022-11-15T15:13:05.627Z,14.25
2022-11-15T15:15:35.206Z,14.11
2022-11-15T15:18:05.667Z,13.99
2022-11-15T15:20:34.095Z,13.89
2022-11-15T15:23:02.448Z,13.66
2022-11-15T15:25:31.430Z,13.74
2022-11-15T15:28:00.013Z,13.67
2022-11-15T15:30:31.193Z,13.92
2022-11-15T15:32:59.374Z,14.31
2022-11-15T15:35:31.342Z,13.93
2022-11-15T15:37:59.954Z,13.58
2022-11-15T15:40:30.648Z,13.78
2022-11-15T15:42:59.025Z,13.47
2022-11-15T15:45:29.277Z,13.63
2022-11-15T15:47:57.997Z,13.58
2022-11-15T15:50:27.617Z,13.67
2022-11-15T15:52:57.105Z,13.52
2022-11-15T15:55:25.740Z,13.44
2022-11-15T15:57:54.393Z,13.41
2022-11-15T16:00:24.570Z,13.49
2022-11-15T16:02:54.888Z,13.56
2022-11-15T16:05:23.678Z,13.21
2022-11-15T16:07:52.377Z,13.05
2022-11-15T16:10:24.078Z,13.29
2022-11-15T16:12:53.187Z,12.89
2022-11-15T16:15:22.156Z,12.88
2022-11-15T16:17:52.536Z,12.88
2022-11-15T16:20:32.285Z,13.14
2022-11-15T16:23:05.781Z,12.75
2022-11-15T16:25:39.460Z,12.86
2022-11-15T16:28:15.573Z,12.97
2022-11-15T16:30:43.711Z,12.56
2022-11-15T16:33:13.988Z,12.58
2022-11-15T16:35:43.560Z,12.82
2022-11-15T16:38:15.914Z,12.83
2022-11-15T16:40:44.445Z,12.42
2022-11-15T16:43:13.222Z,12.49
2022-11-15T16:45:41.409Z,12.34
2022-11-15T16:48:21.648Z,12.84
2022-11-15T16:50:51.330Z,12.67
2022-11-15T16:53:19.742Z,12.35
2022-11-15T16:55:48.016Z,12.38
2022-11-15T16:58:16.367Z,12.17
2022-11-15T17:00:44.559Z,12.11
2022-11-15T17:03:13.100Z,12.12
2022-11-15T17:05:41.316Z,12.15
2022-11-15T17:08:11.017Z,12.42
2022-11-15T17:10:41.279Z,12.41
2022-11-15T17:13:10.244Z,12.35
2022-11-15T17:15:38.401Z,12.21
2022-11-15T17:18:07.575Z,12.39
2022-11-15T17:20:35.661Z,12.29
2022-11-15T17:23:04.006Z,12.19
2022-11-15T17:25:33.475Z,12.42
2022-11-15T17:28:02.085Z,12.07
2022-11-15T17:30:30.317Z,11.87
2022-11-15T17:32:58.610Z,11.80
2022-11-15T17:35:29.740Z,12.11
2022-11-15T17:37:57.980Z,12.61
2022-11-15T17:40:26.311Z,11.97
2022-11-15T17:42:57.138Z,12.19
2022-11-15T17:45:25.243Z,11.89
2022-11-15T17:47:53.886Z,11.82
2022-11-15T17:50:22.023Z,11.63
2022-11-15T17:52:50.391Z,11.50
2022-11-15T17:55:18.593Z,11.42
2022-11-15T17:57:46.994Z,11.29
2022-11-15T18:00:19.684Z,11.49
2022-11-15T18:02:48.227Z,11.18
2022-11-15T18:05:16.387Z,11.33
2022-11-15T18:07:44.885Z,11.47
2022-11-15T18:10:13.040Z,11.39
2022-11-15T18:12:42.391Z,11.47
2022-11-15T18:15:10.735Z,11.14
2022-11-15T18:17:40.542Z,11.41
2022-11-15T18:20:10.211Z,11.16
2022-11-15T18:22:38.631Z,10.95
2022-11-15T18:25:07.382Z,11.13
2022-11-15T18:27:35.828Z,10.96
2022-11-15T18:30:03.875Z,11.02
2022-11-15T18:32:32.356Z,11.00
2022-11-15T18:35:01.959Z,11.34
2022-11-15T18:37:30.972Z,11.06
2022-11-15T18:39:59.030Z,11.08
2022-11-15T18:42:27.517Z,11.09
2022-11-15T18:44:55.671Z,11.23
2022-11-15T18:47:24.112Z,11.38
2022-11-15T18:49:52.281Z,11.43
2022-11-15T18:52:22.723Z,11.76
2022-11-15T18:54:50.929Z,11.53
2022-11-15T18:57:19.363Z,11.67
2022-11-15T18:59:47.500Z,11.74
2022-11-15T19:02:15.869Z,11.70
2022-11-15T19:04:43.971Z,11.70
2022-11-15T19:07:12.383Z,11.68
2022-11-15T19:09:41.984Z,12.03
2022-11-15T19:12:10.295Z,11.69
2022-11-15T19:14:38.533Z,11.76
2022-11-15T19:17:07.071Z,11.74
2022-11-15T19:19:35.164Z,11.76
2022-11-15T19:22:03.582Z,11.71
2022-11-15T19:24:31.908Z,11.66
2022-11-15T19:27:01.719Z,11.87
2022-11-15T19:29:29.934Z,11.54
2022-11-15T19:31:58.455Z,11.42
2022-11-15T19:34:26.603Z,11.34
2022-11-15T19:36:55.264Z,11.36
2022-11-15T19:39:23.383Z,11.34
2022-11-15T19:41:51.879Z,11.32
2022-11-15T19:44:22.858Z,11.55
2022-11-15T19:46:51.296Z,11.24
2022-11-15T19:49:19.789Z,11.13
2022-11-15T19:51:48.563Z,11.00
2022-11-15T19:54:17.371Z,10.94
2022-11-15T19:56:45.775Z,10.98
2022-11-15T19:59:14.363Z,11.04
2022-11-15T20:01:44.221Z,11.15
2022-11-15T20:04:12.350Z,10.74
2022-11-15T20:06:42.819Z,11.03
2022-11-15T20:09:13.894Z,11.16
2022-11-15T20:11:42.213Z,11.69
2022-11-15T20:14:11.774Z,10.92
2022-11-15T20:16:40.501Z,10.97
2022-11-15T20:19:10.064Z,11.13
2022-11-15T20:21:38.478Z,10.96
2022-11-15T20:24:07.678Z,11.08
2022-11-15T20:26:36.122Z,10.84
2022-11-15T20:29:04.331Z,10.81
2022-11-15T20:31:32.901Z,10.87
2022-11-15T20:34:01.296Z,10.98
2022-11-15T20:36:31.221Z,11.18
2022-11-15T20:39:00.268Z,11.06
2022-11-15T20:41:28.725Z,10.93
2022-11-15T20:43:56.903Z,10.85
2022-11-15T20:46:25.296Z,10.70
2022-11-15T20:48:53.427Z,10.72
2022-11-15T20:51:21.911Z,10.87
2022-11-15T20:53:51.538Z,11.11
2022-11-15T20:56:21.038Z,11.04
2022-11-15T20:58:50.530Z,11.03
2022-11-15T21:01:23.753Z,11.29
2022-11-15T21:03:52.725Z,11.10
2022-11-15T21:06:21.519Z,11.25
2022-11-15T21:09:09.136Z,11.26
2022-11-15T21:11:55.682Z,11.25
2022-11-15T21:14:23.940Z,11.33
2022-11-15T21:16:52.336Z,11.30
2022-11-15T21:19:25.702Z,11.30
2022-11-15T21:21:56.375Z,11.29
2022-11-15T21:24:26.847Z,11.60
2022-11-15T21:26:55.894Z,11.47
2022-11-15T21:29:24.065Z,11.37
2022-11-15T21:31:53.339Z,11.62
2022-11-15T21:34:21.926Z,11.53
2022-11-15T21:36:50.374Z,11.38
2022-11-15T21:39:18.425Z,11.50
2022-11-15T21:41:48.111Z,11.81
2022-11-15T21:44:16.185Z,11.52
2022-11-15T21:46:44.604Z,11.42
2022-11-15T21:49:12.841Z,11.49
2022-11-15T21:51:41.279Z,11.43
2022-11-15T21:54:09.488Z,11.48
2022-11-15T21:56:38.323Z,11.48
2022-11-15T21:59:07.925Z,11.68
2022-11-15T22:01:53.965Z,11.40
2022-11-15T22:04:24.141Z,11.41
2022-11-15T22:06:52.853Z,11.39
2022-11-15T22:09:21.076Z,11.26
2022-11-15T22:11:49.528Z,11.23
2022-11-15T22:14:19.203Z,11.56
2022-11-15T22:16:47.637Z,11.21
2022-11-15T22:19:15.884Z,11.22
2022-11-15T22:21:44.209Z,11.16
2022-11-15T22:24:12.654Z,11.09
2022-11-15T22:26:41.104Z,11.13
2022-11-15T22:29:09.174Z,11.12
2022-11-15T22:31:39.103Z,11.47
2022-11-15T22:34:07.171Z,11.09
2022-11-15T22:36:52.300Z,11.12
2022-11-15T22:39:23.861Z,11.21
2022-11-15T22:41:53.507Z,11.11
2022-11-15T22:44:22.236Z,11.06
2022-11-15T22:46:52.052Z,11.39
2022-11-15T22:49:20.132Z,11.04
2022-11-15T22:51:51.593Z,11.11
2022-11-15T22:54:19.704Z,11.06
2022-11-15T22:56:48.538Z,11.05
2022-11-15T22:59:16.716Z,11.08
2022-11-15T23:01:45.197Z,11.20
2022-11-15T23:04:14.628Z,11.45
2022-11-15T23:06:43.180Z,11.26
2022-11-15T23:09:11.518Z,11.32
2022-11-15T23:11:57.551Z,11.31
2022-11-15T23:14:25.854Z,11.40
2022-11-15T23:16:54.287Z,11.49
2022-11-15T23:19:24.128Z,11.83
2022-11-15T23:22:10.218Z,11.41
2022-11-15T23:24:38.487Z,11.38
2022-11-15T23:27:08.648Z,11.49
2022-11-15T23:29:58.464Z,11.39
2022-11-15T23:32:44.611Z,11.08
2022-11-15T23:35:14.154Z,11.40
2022-11-15T23:37:42.615Z,11.19
2022-11-15T23:40:12.396Z,11.36
2022-11-15T23:42:40.789Z,11.17
2022-11-15T23:45:09.467Z,11.34
2022-11-15T23:47:37.880Z,11.23
2022-11-15T23:50:06.840Z,11.40
2022-11-15T23:52:36.563Z,11.60
2022-11-15T23:55:05.025Z,11.38
2022-11-15T23:57:33.373Z,11.34
